sensor_id;sensor_type;location;lat;lon;timestamp;temperature;humidity
19435;DHT22;9853;50.848;4.108;2023-11-22T00:01:13;7.50;99.90
19435;DHT22;9853;50.848;4.108;2023-11-22T00:03:14;7.50;99.90
19435;DHT22;9853;50.848;4.108;2023-11-22T00:05:14;7.50;99.90
19435;DHT22;9853;50.848;4.108;2023-11-22T00:07:15;7.50;99.90
19435;DHT22;9853;50.848;4.108;2023-11-22T00:09:16;7.40;99.90
19435;DHT22;9853;50.848;4.108;2023-11-22T00:11:22;7.20;99.90
19435;DHT22;9853;50.848;4.108;2023-11-22T00:13:23;7.30;99.90
19435;DHT22;9853;50.848;4.108;2023-11-22T00:15:24;7.40;99.90
19435;DHT22;9853;50.848;4.108;2023-11-22T00:17:24;7.40;99.90
19435;DHT22;9853;50.848;4.108;2023-11-22T00:19:25;7.40;99.90
19435;DHT22;9853;50.848;4.108;2023-11-22T00:21:26;7.40;99.90
19435;DHT22;9853;50.848;4.108;2023-11-22T00:23:27;7.30;99.90
19435;DHT22;9853;50.848;4.108;2023-11-22T00:25:30;7.30;99.90
19435;DHT22;9853;50.848;4.108;2023-11-22T00:27:31;7.40;99.90
19435;DHT22;9853;50.848;4.108;2023-11-22T00:29:32;7.30;99.90
19435;DHT22;9853;50.848;4.108;2023-11-22T00:31:33;7.30;99.90
19435;DHT22;9853;50.848;4.108;2023-11-22T00:33:34;7.20;99.90
19435;DHT22;9853;50.848;4.108;2023-11-22T00:35:35;7.20;99.90
19435;DHT22;9853;50.848;4.108;2023-11-22T00:37:36;7.10;99.90
19435;DHT22;9853;50.848;4.108;2023-11-22T00:39:37;7.10;99.90
19435;DHT22;9853;50.848;4.108;2023-11-22T00:41:37;7.10;99.90
19435;DHT22;9853;50.848;4.108;2023-11-22T00:43:38;7.10;99.90
19435;DHT22;9853;50.848;4.108;2023-11-22T00:45:39;7.10;99.90
19435;DHT22;9853;50.848;4.108;2023-11-22T00:47:40;7.20;99.90
19435;DHT22;9853;50.848;4.108;2023-11-22T00:49:42;7.30;99.90
19435;DHT22;9853;50.848;4.108;2023-11-22T00:51:43;7.20;99.90
19435;DHT22;9853;50.848;4.108;2023-11-22T00:53:45;7.20;99.90
19435;DHT22;9853;50.848;4.108;2023-11-22T00:55:46;7.20;99.90
19435;DHT22;9853;50.848;4.108;2023-11-22T00:57:47;7.20;99.90
19435;DHT22;9853;50.848;4.108;2023-11-22T00:59:48;7.20;99.90
19435;DHT22;9853;50.848;4.108;2023-11-22T01:01:48;7.10;99.90
19435;DHT22;9853;50.848;4.108;2023-11-22T01:03:49;7.10;99.90
19435;DHT22;9853;50.848;4.108;2023-11-22T01:05:50;7.10;99.90
19435;DHT22;9853;50.848;4.108;2023-11-22T01:07:51;7.10;99.90
19435;DHT22;9853;50.848;4.108;2023-11-22T01:09:52;7.20;99.90
19435;DHT22;9853;50.848;4.108;2023-11-22T01:11:53;7.20;99.90
19435;DHT22;9853;50.848;4.108;2023-11-22T01:13:54;7.20;99.90
19435;DHT22;9853;50.848;4.108;2023-11-22T01:15:55;7.30;99.90
19435;DHT22;9853;50.848;4.108;2023-11-22T01:17:56;7.20;99.90
19435;DHT22;9853;50.848;4.108;2023-11-22T01:19:56;7.10;99.90
19435;DHT22;9853;50.848;4.108;2023-11-22T01:21:59;7.10;99.90
19435;DHT22;9853;50.848;4.108;2023-11-22T01:24:00;7.10;99.90
19435;DHT22;9853;50.848;4.108;2023-11-22T01:26:02;7.10;99.90
19435;DHT22;9853;50.848;4.108;2023-11-22T01:28:03;7.10;99.90
19435;DHT22;9853;50.848;4.108;2023-11-22T01:30:05;7.20;99.90
19435;DHT22;9853;50.848;4.108;2023-11-22T01:32:08;7.00;99.90
19435;DHT22;9853;50.848;4.108;2023-11-22T01:34:09;7.00;99.90
19435;DHT22;9853;50.848;4.108;2023-11-22T01:36:10;7.00;99.90
19435;DHT22;9853;50.848;4.108;2023-11-22T01:38:11;7.00;99.90
19435;DHT22;9853;50.848;4.108;2023-11-22T01:40:12;7.00;99.90
19435;DHT22;9853;50.848;4.108;2023-11-22T01:42:13;7.10;99.90
19435;DHT22;9853;50.848;4.108;2023-11-22T01:44:14;6.90;99.90
19435;DHT22;9853;50.848;4.108;2023-11-22T01:46:22;6.80;99.90
19435;DHT22;9853;50.848;4.108;2023-11-22T01:48:24;6.70;99.90
19435;DHT22;9853;50.848;4.108;2023-11-22T01:50:25;6.90;99.90
19435;DHT22;9853;50.848;4.108;2023-11-22T01:52:27;6.80;99.90
19435;DHT22;9853;50.848;4.108;2023-11-22T01:54:28;6.70;99.90
19435;DHT22;9853;50.848;4.108;2023-11-22T01:56:30;6.30;99.90
19435;DHT22;9853;50.848;4.108;2023-11-22T01:58:32;6.00;99.90
19435;DHT22;9853;50.848;4.108;2023-11-22T02:00:44;5.70;99.90
19435;DHT22;9853;50.848;4.108;2023-11-22T02:02:46;5.60;99.90
19435;DHT22;9853;50.848;4.108;2023-11-22T02:04:46;5.60;99.90
19435;DHT22;9853;50.848;4.108;2023-11-22T02:06:47;5.50;99.90
19435;DHT22;9853;50.848;4.108;2023-11-22T02:08:48;6.00;99.90
19435;DHT22;9853;50.848;4.108;2023-11-22T02:10:58;6.00;99.90
19435;DHT22;9853;50.848;4.108;2023-11-22T02:12:59;5.60;99.90
19435;DHT22;9853;50.848;4.108;2023-11-22T02:15:05;5.60;99.90
19435;DHT22;9853;50.848;4.108;2023-11-22T02:17:06;5.50;99.90
19435;DHT22;9853;50.848;4.108;2023-11-22T02:19:16;5.60;99.90
19435;DHT22;9853;50.848;4.108;2023-11-22T02:21:17;6.10;99.90
19435;DHT22;9853;50.848;4.108;2023-11-22T02:23:18;6.30;99.90
19435;DHT22;9853;50.848;4.108;2023-11-22T02:25:19;6.50;99.90
19435;DHT22;9853;50.848;4.108;2023-11-22T02:27:21;6.80;99.90
19435;DHT22;9853;50.848;4.108;2023-11-22T02:29:22;7.10;99.90
19435;DHT22;9853;50.848;4.108;2023-11-22T02:31:22;7.20;99.90
19435;DHT22;9853;50.848;4.108;2023-11-22T02:33:24;6.90;99.90
19435;DHT22;9853;50.848;4.108;2023-11-22T02:35:25;7.00;99.90
19435;DHT22;9853;50.848;4.108;2023-11-22T02:37:27;7.30;99.90
19435;DHT22;9853;50.848;4.108;2023-11-22T02:39:48;7.50;99.90
19435;DHT22;9853;50.848;4.108;2023-11-22T02:41:55;7.50;99.90
19435;DHT22;9853;50.848;4.108;2023-11-22T02:43:56;7.40;99.90
19435;DHT22;9853;50.848;4.108;2023-11-22T02:45:57;7.30;99.90
19435;DHT22;9853;50.848;4.108;2023-11-22T02:47:58;7.20;99.90
19435;DHT22;9853;50.848;4.108;2023-11-22T02:50:02;7.10;99.90
19435;DHT22;9853;50.848;4.108;2023-11-22T02:52:05;7.00;99.90
19435;DHT22;9853;50.848;4.108;2023-11-22T02:54:06;7.20;99.90
19435;DHT22;9853;50.848;4.108;2023-11-22T02:56:07;7.40;99.90
19435;DHT22;9853;50.848;4.108;2023-11-22T02:58:08;7.50;99.90
19435;DHT22;9853;50.848;4.108;2023-11-22T03:00:09;7.50;99.90
19435;DHT22;9853;50.848;4.108;2023-11-22T03:02:19;7.50;99.90
19435;DHT22;9853;50.848;4.108;2023-11-22T03:04:20;7.50;99.90
19435;DHT22;9853;50.848;4.108;2023-11-22T03:06:20;7.50;99.90
19435;DHT22;9853;50.848;4.108;2023-11-22T03:08:21;7.50;99.90
19435;DHT22;9853;50.848;4.108;2023-11-22T03:10:22;7.10;99.90
19435;DHT22;9853;50.848;4.108;2023-11-22T03:12:23;7.10;99.90
19435;DHT22;9853;50.848;4.108;2023-11-22T03:14:23;7.20;99.90
19435;DHT22;9853;50.848;4.108;2023-11-22T03:16:24;7.20;99.90
19435;DHT22;9853;50.848;4.108;2023-11-22T03:18:25;7.10;99.90
19435;DHT22;9853;50.848;4.108;2023-11-22T03:20:27;7.00;99.90
19435;DHT22;9853;50.848;4.108;2023-11-22T03:22:28;6.90;99.90
19435;DHT22;9853;50.848;4.108;2023-11-22T03:24:32;6.70;99.90
19435;DHT22;9853;50.848;4.108;2023-11-22T03:26:35;6.40;99.90
19435;DHT22;9853;50.848;4.108;2023-11-22T03:28:36;6.50;99.90
19435;DHT22;9853;50.848;4.108;2023-11-22T03:30:37;6.60;99.90
19435;DHT22;9853;50.848;4.108;2023-11-22T03:32:38;6.60;99.90
19435;DHT22;9853;50.848;4.108;2023-11-22T03:34:40;6.50;99.90
19435;DHT22;9853;50.848;4.108;2023-11-22T03:36:40;6.50;99.90
19435;DHT22;9853;50.848;4.108;2023-11-22T03:38:41;6.40;99.90
19435;DHT22;9853;50.848;4.108;2023-11-22T03:40:42;6.30;99.90
19435;DHT22;9853;50.848;4.108;2023-11-22T03:42:43;6.20;99.90
19435;DHT22;9853;50.848;4.108;2023-11-22T03:44:44;6.10;99.90
19435;DHT22;9853;50.848;4.108;2023-11-22T03:46:44;6.10;99.90
19435;DHT22;9853;50.848;4.108;2023-11-22T03:48:45;6.20;99.90
19435;DHT22;9853;50.848;4.108;2023-11-22T03:50:46;6.30;99.90
19435;DHT22;9853;50.848;4.108;2023-11-22T03:52:47;6.10;99.90
19435;DHT22;9853;50.848;4.108;2023-11-22T03:54:47;6.20;99.90
19435;DHT22;9853;50.848;4.108;2023-11-22T03:56:48;5.90;99.90
19435;DHT22;9853;50.848;4.108;2023-11-22T03:58:49;5.50;99.90
19435;DHT22;9853;50.848;4.108;2023-11-22T04:00:51;5.20;99.90
19435;DHT22;9853;50.848;4.108;2023-11-22T04:02:53;4.80;99.90
19435;DHT22;9853;50.848;4.108;2023-11-22T04:04:54;4.70;99.90
19435;DHT22;9853;50.848;4.108;2023-11-22T04:06:55;4.40;99.90
19435;DHT22;9853;50.848;4.108;2023-11-22T04:08:56;4.40;99.90
19435;DHT22;9853;50.848;4.108;2023-11-22T04:10:56;4.40;99.90
19435;DHT22;9853;50.848;4.108;2023-11-22T04:12:57;4.40;99.90
19435;DHT22;9853;50.848;4.108;2023-11-22T04:14:58;4.40;99.90
19435;DHT22;9853;50.848;4.108;2023-11-22T04:16:59;4.40;99.90
19435;DHT22;9853;50.848;4.108;2023-11-22T04:19:00;4.40;99.90
19435;DHT22;9853;50.848;4.108;2023-11-22T04:21:00;4.50;99.90
19435;DHT22;9853;50.848;4.108;2023-11-22T04:23:01;4.60;99.90
19435;DHT22;9853;50.848;4.108;2023-11-22T04:25:02;4.60;99.90
19435;DHT22;9853;50.848;4.108;2023-11-22T04:27:04;4.70;99.90
19435;DHT22;9853;50.848;4.108;2023-11-22T04:29:06;4.60;99.90
19435;DHT22;9853;50.848;4.108;2023-11-22T04:31:07;5.20;99.90
19435;DHT22;9853;50.848;4.108;2023-11-22T04:33:11;5.80;99.90
19435;DHT22;9853;50.848;4.108;2023-11-22T04:35:12;5.80;99.90
19435;DHT22;9853;50.848;4.108;2023-11-22T04:37:13;5.60;99.90
19435;DHT22;9853;50.848;4.108;2023-11-22T04:39:14;5.50;99.90
19435;DHT22;9853;50.848;4.108;2023-11-22T04:41:16;5.30;99.90
19435;DHT22;9853;50.848;4.108;2023-11-22T04:43:19;5.30;99.90
19435;DHT22;9853;50.848;4.108;2023-11-22T04:45:20;5.20;99.90
19435;DHT22;9853;50.848;4.108;2023-11-22T04:47:21;5.40;99.90
19435;DHT22;9853;50.848;4.108;2023-11-22T04:49:22;5.90;99.90
19435;DHT22;9853;50.848;4.108;2023-11-22T04:51:23;5.80;99.90
19435;DHT22;9853;50.848;4.108;2023-11-22T09:29:03;7.90;99.90
19435;DHT22;9853;50.848;4.108;2023-11-22T09:31:05;8.00;99.90
19435;DHT22;9853;50.848;4.108;2023-11-22T09:33:12;8.00;99.90
19435;DHT22;9853;50.848;4.108;2023-11-22T09:35:15;7.90;99.90
19435;DHT22;9853;50.848;4.108;2023-11-22T09:37:17;7.60;99.90
19435;DHT22;9853;50.848;4.108;2023-11-22T09:39:17;7.70;99.90
19435;DHT22;9853;50.848;4.108;2023-11-22T10:03:54;7.70;99.90
19435;DHT22;9853;50.848;4.108;2023-11-22T10:07:03;7.50;99.90
19435;DHT22;9853;50.848;4.108;2023-11-22T10:09:20;7.30;99.90
